sensor_id;sensor_type;location;lat;lon;timestamp;pressure;altitude;pressure_sealevel;temperature;humidity
34235;BME280;20500;49.856;20.290;2023-03-01T00:03:03;100171.91;;;-3.89;67.36
34235;BME280;20500;49.856;20.290;2023-03-01T00:06:10;100174.03;;;-3.88;67.34
34235;BME280;20500;49.856;20.290;2023-03-01T00:09:17;100178.31;;;-3.89;67.38
34235;BME280;20500;49.856;20.290;2023-03-01T00:12:23;100178.14;;;-3.89;67.44
34235;BME280;20500;49.856;20.290;2023-03-01T00:15:30;100176.01;;;-3.89;67.51
34235;BME280;20500;49.856;20.290;2023-03-01T00:18:34;100175.29;;;-3.85;67.69
34235;BME280;20500;49.856;20.290;2023-03-01T00:21:41;100174.77;;;-3.80;67.62
34235;BME280;20500;49.856;20.290;2023-03-01T00:24:48;100177.08;;;-3.77;67.59
34235;BME280;20500;49.856;20.290;2023-03-01T00:27:55;100171.45;;;-3.74;67.74
34235;BME280;20500;49.856;20.290;2023-03-01T00:31:06;100163.83;;;-3.74;67.71
34235;BME280;20500;49.856;20.290;2023-03-01T00:34:12;100161.63;;;-3.81;67.63
34235;BME280;20500;49.856;20.290;2023-03-01T00:37:19;100163.59;;;-3.89;67.68
34235;BME280;20500;49.856;20.290;2023-03-01T00:40:25;100164.33;;;-3.94;67.75
34235;BME280;20500;49.856;20.290;2023-03-01T00:43:30;100160.08;;;-3.95;67.73
34235;BME280;20500;49.856;20.290;2023-03-01T00:46:41;100150.65;;;-3.98;67.78
34235;BME280;20500;49.856;20.290;2023-03-01T00:49:46;100149.63;;;-4.03;67.87
34235;BME280;20500;49.856;20.290;2023-03-01T00:52:55;100154.17;;;-4.06;67.82
34235;BME280;20500;49.856;20.290;2023-03-01T00:56:02;100151.08;;;-4.08;68.05
34235;BME280;20500;49.856;20.290;2023-03-01T00:59:08;100143.00;;;-4.10;67.95
34235;BME280;20500;49.856;20.290;2023-03-01T01:02:15;100146.77;;;-4.11;68.20
34235;BME280;20500;49.856;20.290;2023-03-01T01:05:19;100144.00;;;-4.08;68.22
34235;BME280;20500;49.856;20.290;2023-03-01T01:08:26;100144.16;;;-4.08;68.22
34235;BME280;20500;49.856;20.290;2023-03-01T01:11:33;100141.41;;;-4.10;68.14
34235;BME280;20500;49.856;20.290;2023-03-01T01:14:41;100139.69;;;-4.07;68.28
34235;BME280;20500;49.856;20.290;2023-03-01T01:17:47;100135.23;;;-4.07;68.21
34235;BME280;20500;49.856;20.290;2023-03-01T01:20:54;100134.91;;;-4.11;68.15
34235;BME280;20500;49.856;20.290;2023-03-01T01:23:58;100132.35;;;-4.18;68.22
34235;BME280;20500;49.856;20.290;2023-03-01T01:27:05;100128.45;;;-4.22;68.27
34235;BME280;20500;49.856;20.290;2023-03-01T01:30:13;100123.61;;;-4.21;68.28
34235;BME280;20500;49.856;20.290;2023-03-01T01:33:20;100120.44;;;-4.18;68.51
34235;BME280;20500;49.856;20.290;2023-03-01T01:36:24;100115.79;;;-4.17;68.47
34235;BME280;20500;49.856;20.290;2023-03-01T01:39:31;100118.98;;;-4.21;68.20
34235;BME280;20500;49.856;20.290;2023-03-01T01:42:35;100121.06;;;-4.28;68.13
34235;BME280;20500;49.856;20.290;2023-03-01T01:45:43;100116.24;;;-4.36;68.31
34235;BME280;20500;49.856;20.290;2023-03-01T01:48:52;100104.55;;;-4.40;68.68
34235;BME280;20500;49.856;20.290;2023-03-01T01:52:04;100099.48;;;-4.38;68.64
34235;BME280;20500;49.856;20.290;2023-03-01T01:55:14;100098.42;;;-4.37;68.57
34235;BME280;20500;49.856;20.290;2023-03-01T01:58:22;100094.33;;;-4.42;68.64
34235;BME280;20500;49.856;20.290;2023-03-01T02:01:30;100085.39;;;-4.44;68.76
34235;BME280;20500;49.856;20.290;2023-03-01T02:04:36;100092.55;;;-4.42;68.83
34235;BME280;20500;49.856;20.290;2023-03-01T02:07:44;100100.37;;;-4.47;68.67
34235;BME280;20500;49.856;20.290;2023-03-01T02:10:51;100099.19;;;-4.61;68.67
34235;BME280;20500;49.856;20.290;2023-03-01T02:13:58;100094.76;;;-4.70;68.98
34235;BME280;20500;49.856;20.290;2023-03-01T02:17:05;100101.11;;;-4.69;69.08
34235;BME280;20500;49.856;20.290;2023-03-01T02:20:12;100098.89;;;-4.71;69.12
34235;BME280;20500;49.856;20.290;2023-03-01T02:23:21;100100.81;;;-4.75;69.20
34235;BME280;20500;49.856;20.290;2023-03-01T02:26:32;100096.20;;;-4.75;69.33
34235;BME280;20500;49.856;20.290;2023-03-01T02:29:41;100096.27;;;-4.72;69.31
34235;BME280;20500;49.856;20.290;2023-03-01T02:32:49;100097.90;;;-4.73;69.06
34235;BME280;20500;49.856;20.290;2023-03-01T02:35:57;100096.11;;;-4.77;69.08
34235;BME280;20500;49.856;20.290;2023-03-01T02:39:07;100101.35;;;-4.84;69.29
34235;BME280;20500;49.856;20.290;2023-03-01T02:42:23;100106.14;;;-4.89;69.27
34235;BME280;20500;49.856;20.290;2023-03-01T02:45:32;100105.33;;;-4.91;69.44
34235;BME280;20500;49.856;20.290;2023-03-01T02:48:47;100104.79;;;-4.91;69.60
34235;BME280;20500;49.856;20.290;2023-03-01T02:52:14;100099.85;;;-4.86;69.74
34235;BME280;20500;49.856;20.290;2023-03-01T02:55:26;100094.44;;;-4.84;69.63
34235;BME280;20500;49.856;20.290;2023-03-01T02:58:33;100094.98;;;-4.80;69.59
34235;BME280;20500;49.856;20.290;2023-03-01T03:01:45;100091.51;;;-4.77;69.77
34235;BME280;20500;49.856;20.290;2023-03-01T03:04:51;100094.91;;;-4.74;69.62
34235;BME280;20500;49.856;20.290;2023-03-01T03:07:59;100103.33;;;-4.76;69.59
34235;BME280;20500;49.856;20.290;2023-03-01T03:11:06;100101.85;;;-4.79;69.61
34235;BME280;20500;49.856;20.290;2023-03-01T03:14:14;100101.88;;;-4.80;69.52
34235;BME280;20500;49.856;20.290;2023-03-01T03:17:20;100105.85;;;-4.82;69.74
34235;BME280;20500;49.856;20.290;2023-03-01T03:20:29;100112.27;;;-4.83;69.60
34235;BME280;20500;49.856;20.290;2023-03-01T03:23:36;100112.14;;;-4.83;69.68
34235;BME280;20500;49.856;20.290;2023-03-01T03:26:43;100105.13;;;-4.85;69.61
34235;BME280;20500;49.856;20.290;2023-03-01T03:29:49;100101.39;;;-4.85;69.76
34235;BME280;20500;49.856;20.290;2023-03-01T03:32:57;100103.75;;;-4.82;69.74
34235;BME280;20500;49.856;20.290;2023-03-01T03:36:04;100102.09;;;-4.80;69.78
34235;BME280;20500;49.856;20.290;2023-03-01T03:39:11;100101.31;;;-4.79;69.70
34235;BME280;20500;49.856;20.290;2023-03-01T03:42:17;100106.00;;;-4.81;69.88
34235;BME280;20500;49.856;20.290;2023-03-01T03:45:24;100101.56;;;-4.81;69.85
34235;BME280;20500;49.856;20.290;2023-03-01T03:48:30;100095.39;;;-4.81;69.76
34235;BME280;20500;49.856;20.290;2023-03-01T03:51:34;100090.49;;;-4.87;69.62
34235;BME280;20500;49.856;20.290;2023-03-01T03:54:41;100088.36;;;-4.92;69.85
34235;BME280;20500;49.856;20.290;2023-03-01T03:57:48;100085.81;;;-4.90;70.01
34235;BME280;20500;49.856;20.290;2023-03-01T04:00:57;100082.73;;;-4.88;70.06
34235;BME280;20500;49.856;20.290;2023-03-01T04:04:04;100086.64;;;-4.88;69.95
34235;BME280;20500;49.856;20.290;2023-03-01T04:07:12;100090.10;;;-4.91;69.93
34235;BME280;20500;49.856;20.290;2023-03-01T04:10:17;100091.98;;;-4.98;69.65
34235;BME280;20500;49.856;20.290;2023-03-01T04:13:24;100097.44;;;-5.07;69.88
34235;BME280;20500;49.856;20.290;2023-03-01T04:16:30;100101.08;;;-5.14;70.11
34235;BME280;20500;49.856;20.290;2023-03-01T04:19:37;100099.37;;;-5.16;70.21
34235;BME280;20500;49.856;20.290;2023-03-01T04:22:41;100096.27;;;-5.18;70.11
34235;BME280;20500;49.856;20.290;2023-03-01T04:25:49;100101.59;;;-5.18;70.29
34235;BME280;20500;49.856;20.290;2023-03-01T04:28:58;100097.18;;;-5.18;70.20
34235;BME280;20500;49.856;20.290;2023-03-01T04:32:03;100095.75;;;-5.18;70.07
34235;BME280;20500;49.856;20.290;2023-03-01T04:35:10;100100.91;;;-5.19;70.26
34235;BME280;20500;49.856;20.290;2023-03-01T04:38:16;100098.65;;;-5.20;70.11
34235;BME280;20500;49.856;20.290;2023-03-01T04:41:24;100094.55;;;-5.20;70.28
34235;BME280;20500;49.856;20.290;2023-03-01T04:44:30;100100.54;;;-5.18;70.26
34235;BME280;20500;49.856;20.290;2023-03-01T04:47:37;100107.82;;;-5.19;70.38
34235;BME280;20500;49.856;20.290;2023-03-01T04:50:41;100103.32;;;-5.22;70.35
34235;BME280;20500;49.856;20.290;2023-03-01T04:53:48;100102.51;;;-5.23;70.25
34235;BME280;20500;49.856;20.290;2023-03-01T04:56:55;100098.66;;;-5.25;70.22
34235;BME280;20500;49.856;20.290;2023-03-01T05:00:01;100093.73;;;-5.25;70.35
34235;BME280;20500;49.856;20.290;2023-03-01T05:03:24;100086.54;;;-5.27;70.32
34235;BME280;20500;49.856;20.290;2023-03-01T05:06:31;100083.16;;;-5.27;70.41
34235;BME280;20500;49.856;20.290;2023-03-01T05:09:36;100083.73;;;-5.24;70.42
34235;BME280;20500;49.856;20.290;2023-03-01T05:12:43;100085.95;;;-5.25;70.41
34235;BME280;20500;49.856;20.290;2023-03-01T05:15:47;100077.24;;;-5.29;70.28
34235;BME280;20500;49.856;20.290;2023-03-01T05:18:55;100073.64;;;-5.32;70.39
34235;BME280;20500;49.856;20.290;2023-03-01T05:22:01;100072.89;;;-5.35;70.37
34235;BME280;20500;49.856;20.290;2023-03-01T05:25:09;100070.56;;;-5.40;70.34
34235;BME280;20500;49.856;20.290;2023-03-01T05:28:15;100070.39;;;-5.40;70.40
34235;BME280;20500;49.856;20.290;2023-03-01T05:31:21;100065.00;;;-5.38;70.43
34235;BME280;20500;49.856;20.290;2023-03-01T05:34:26;100064.43;;;-5.37;70.49
34235;BME280;20500;49.856;20.290;2023-03-01T05:37:32;100068.86;;;-5.32;70.49
34235;BME280;20500;49.856;20.290;2023-03-01T05:40:41;100072.55;;;-5.32;70.49
34235;BME280;20500;49.856;20.290;2023-03-01T05:43:48;100071.08;;;-5.35;70.57
34235;BME280;20500;49.856;20.290;2023-03-01T05:46:54;100076.19;;;-5.39;70.50
34235;BME280;20500;49.856;20.290;2023-03-01T05:50:01;100076.85;;;-5.43;70.62
34235;BME280;20500;49.856;20.290;2023-03-01T05:53:09;100080.45;;;-5.44;70.61
34235;BME280;20500;49.856;20.290;2023-03-01T05:56:16;100079.11;;;-5.51;70.59
34235;BME280;20500;49.856;20.290;2023-03-01T05:59:20;100085.16;;;-5.52;70.85
34235;BME280;20500;49.856;20.290;2023-03-01T06:02:27;100087.80;;;-5.52;70.93
34235;BME280;20500;49.856;20.290;2023-03-01T06:05:34;100091.37;;;-5.53;70.84
34235;BME280;20500;49.856;20.290;2023-03-01T06:08:40;100088.56;;;-5.53;71.01
34235;BME280;20500;49.856;20.290;2023-03-01T06:11:46;100084.21;;;-5.46;71.26
34235;BME280;20500;49.856;20.290;2023-03-01T06:14:51;100085.43;;;-5.35;71.18
34235;BME280;20500;49.856;20.290;2023-03-01T06:17:57;100081.02;;;-5.31;71.17
34235;BME280;20500;49.856;20.290;2023-03-01T06:21:05;100084.90;;;-5.26;71.13
34235;BME280;20500;49.856;20.290;2023-03-01T06:24:12;100092.36;;;-5.22;71.18
34235;BME280;20500;49.856;20.290;2023-03-01T06:27:16;100087.95;;;-5.18;71.33
34235;BME280;20500;49.856;20.290;2023-03-01T06:30:24;100085.77;;;-5.17;71.37
34235;BME280;20500;49.856;20.290;2023-03-01T06:33:31;100081.93;;;-5.13;71.31
34235;BME280;20500;49.856;20.290;2023-03-01T06:36:35;100082.55;;;-5.06;71.45
34235;BME280;20500;49.856;20.290;2023-03-01T06:39:42;100084.55;;;-4.98;71.58
34235;BME280;20500;49.856;20.290;2023-03-01T06:42:47;100089.92;;;-4.91;71.66
34235;BME280;20500;49.856;20.290;2023-03-01T06:45:55;100092.42;;;-4.82;71.64
34235;BME280;20500;49.856;20.290;2023-03-01T06:49:01;100089.27;;;-4.78;71.61
34235;BME280;20500;49.856;20.290;2023-03-01T06:52:09;100088.36;;;-4.74;71.65
34235;BME280;20500;49.856;20.290;2023-03-01T06:55:13;100080.72;;;-4.69;71.59
34235;BME280;20500;49.856;20.290;2023-03-01T06:58:20;100081.51;;;-4.62;71.89
34235;BME280;20500;49.856;20.290;2023-03-01T07:01:24;100082.89;;;-4.56;71.89
34235;BME280;20500;49.856;20.290;2023-03-01T07:04:31;100087.64;;;-4.52;71.78
34235;BME280;20500;49.856;20.290;2023-03-01T07:07:35;100087.09;;;-4.46;71.82
34235;BME280;20500;49.856;20.290;2023-03-01T07:10:41;100087.31;;;-4.43;72.01
34235;BME280;20500;49.856;20.290;2023-03-01T07:13:48;100082.17;;;-4.39;72.18
34235;BME280;20500;49.856;20.290;2023-03-01T07:16:52;100072.71;;;-4.33;72.22
34235;BME280;20500;49.856;20.290;2023-03-01T07:19:59;100064.26;;;-4.26;72.23
34235;BME280;20500;49.856;20.290;2023-03-01T07:23:07;100059.91;;;-4.15;72.33
34235;BME280;20500;49.856;20.290;2023-03-01T07:26:13;100051.62;;;-4.08;72.43
34235;BME280;20500;49.856;20.290;2023-03-01T07:29:19;100043.25;;;-3.99;72.44
34235;BME280;20500;49.856;20.290;2023-03-01T07:32:26;100036.33;;;-3.90;72.54
34235;BME280;20500;49.856;20.290;2023-03-01T07:35:32;100031.84;;;-3.81;72.53
34235;BME280;20500;49.856;20.290;2023-03-01T07:38:36;100028.41;;;-3.72;72.64
34235;BME280;20500;49.856;20.290;2023-03-01T07:41:43;100024.39;;;-3.61;72.66
34235;BME280;20500;49.856;20.290;2023-03-01T07:44:47;100014.60;;;-3.53;72.52
34235;BME280;20500;49.856;20.290;2023-03-01T07:47:54;100009.85;;;-3.46;72.54
34235;BME280;20500;49.856;20.290;2023-03-01T07:51:01;100015.10;;;-3.37;72.70
34235;BME280;20500;49.856;20.290;2023-03-01T07:54:08;100013.73;;;-3.27;72.91
34235;BME280;20500;49.856;20.290;2023-03-01T07:57:14;100012.27;;;-3.15;72.97
34235;BME280;20500;49.856;20.290;2023-03-01T08:00:19;100015.31;;;-3.04;72.93
34235;BME280;20500;49.856;20.290;2023-03-01T08:03:26;100024.83;;;-2.95;72.93
34235;BME280;20500;49.856;20.290;2023-03-01T08:06:30;100032.19;;;-2.85;73.14
34235;BME280;20500;49.856;20.290;2023-03-01T08:09:37;100039.73;;;-2.76;73.15
34235;BME280;20500;49.856;20.290;2023-03-01T08:12:44;100036.85;;;-2.64;73.25
34235;BME280;20500;49.856;20.290;2023-03-01T08:15:48;100039.52;;;-2.50;73.38
34235;BME280;20500;49.856;20.290;2023-03-01T08:18:55;100040.94;;;-2.36;73.38
34235;BME280;20500;49.856;20.290;2023-03-01T08:22:05;100040.09;;;-2.22;73.30
34235;BME280;20500;49.856;20.290;2023-03-01T08:25:10;100030.33;;;-2.09;73.30
34235;BME280;20500;49.856;20.290;2023-03-01T08:28:16;100021.92;;;-1.94;73.32
34235;BME280;20500;49.856;20.290;2023-03-01T08:31:24;100017.02;;;-1.82;73.27
34235;BME280;20500;49.856;20.290;2023-03-01T08:34:31;100012.36;;;-1.71;73.18
34235;BME280;20500;49.856;20.290;2023-03-01T08:37:40;100004.11;;;-1.60;73.09
34235;BME280;20500;49.856;20.290;2023-03-01T08:40:44;99995.27;;;-1.48;73.21
34235;BME280;20500;49.856;20.290;2023-03-01T08:43:51;99994.59;;;-1.35;73.23
34235;BME280;20500;49.856;20.290;2023-03-01T08:46:57;99990.35;;;-1.23;73.21
34235;BME280;20500;49.856;20.290;2023-03-01T08:50:06;99991.67;;;-1.12;73.28
34235;BME280;20500;49.856;20.290;2023-03-01T08:53:12;99987.98;;;-1.04;73.25
34235;BME280;20500;49.856;20.290;2023-03-01T08:56:19;99987.66;;;-0.94;73.06
34235;BME280;20500;49.856;20.290;2023-03-01T08:59:26;99989.17;;;-0.83;73.22
34235;BME280;20500;49.856;20.290;2023-03-01T09:02:34;99991.69;;;-0.74;73.17
34235;BME280;20500;49.856;20.290;2023-03-01T09:05:41;99996.04;;;-0.63;73.11
34235;BME280;20500;49.856;20.290;2023-03-01T09:08:46;99997.86;;;-0.52;72.73
34235;BME280;20500;49.856;20.290;2023-03-01T09:11:52;99997.00;;;-0.40;72.74
34235;BME280;20500;49.856;20.290;2023-03-01T09:14:58;99989.52;;;-0.28;72.78
34235;BME280;20500;49.856;20.290;2023-03-01T09:18:03;99988.49;;;-0.17;72.81
34235;BME280;20500;49.856;20.290;2023-03-01T09:21:11;99990.05;;;-0.07;72.76
34235;BME280;20500;49.856;20.290;2023-03-01T09:24:18;99992.73;;;0.02;72.63
34235;BME280;20500;49.856;20.290;2023-03-01T09:27:25;99986.63;;;0.11;72.49
34235;BME280;20500;49.856;20.290;2023-03-01T09:30:30;99985.33;;;0.21;72.57
34235;BME280;20500;49.856;20.290;2023-03-01T09:33:36;99983.27;;;0.28;72.44
34235;BME280;20500;49.856;20.290;2023-03-01T09:36:42;99980.41;;;0.37;72.32
34235;BME280;20500;49.856;20.290;2023-03-01T09:39:47;99977.33;;;0.46;72.11
34235;BME280;20500;49.856;20.290;2023-03-01T09:42:58;99976.56;;;0.56;71.97
34235;BME280;20500;49.856;20.290;2023-03-01T09:46:10;99981.84;;;0.68;71.95
34235;BME280;20500;49.856;20.290;2023-03-01T09:49:19;99983.02;;;0.81;71.73
34235;BME280;20500;49.856;20.290;2023-03-01T09:52:34;99982.48;;;0.91;71.57
34235;BME280;20500;49.856;20.290;2023-03-01T09:55:46;99985.00;;;1.02;71.45
34235;BME280;20500;49.856;20.290;2023-03-01T09:58:57;99983.46;;;1.15;71.23
34235;BME280;20500;49.856;20.290;2023-03-01T10:02:17;99980.86;;;1.25;71.33
34235;BME280;20500;49.856;20.290;2023-03-01T10:05:43;99975.08;;;1.34;71.13
34235;BME280;20500;49.856;20.290;2023-03-01T10:08:56;99971.63;;;1.43;70.81
34235;BME280;20500;49.856;20.290;2023-03-01T10:12:07;99972.10;;;1.52;70.89
34235;BME280;20500;49.856;20.290;2023-03-01T10:15:18;99970.18;;;1.62;70.82
34235;BME280;20500;49.856;20.290;2023-03-01T10:18:27;99964.81;;;1.72;70.86
34235;BME280;20500;49.856;20.290;2023-03-01T10:21:43;99966.02;;;1.86;70.93
34235;BME280;20500;49.856;20.290;2023-03-01T10:24:51;99966.86;;;1.97;70.43
34235;BME280;20500;49.856;20.290;2023-03-01T10:28:05;99964.73;;;2.10;70.58
34235;BME280;20500;49.856;20.290;2023-03-01T10:31:19;99956.38;;;2.24;70.62
34235;BME280;20500;49.856;20.290;2023-03-01T10:34:30;99954.48;;;2.38;70.35
34235;BME280;20500;49.856;20.290;2023-03-01T10:37:57;99947.52;;;2.51;70.11
34235;BME280;20500;49.856;20.290;2023-03-01T10:41:06;99947.04;;;2.65;70.05
34235;BME280;20500;49.856;20.290;2023-03-01T10:44:37;99943.62;;;2.78;70.13
34235;BME280;20500;49.856;20.290;2023-03-01T10:47:43;99940.14;;;2.94;69.77
34235;BME280;20500;49.856;20.290;2023-03-01T10:51:04;99936.61;;;3.07;69.66
34235;BME280;20500;49.856;20.290;2023-03-01T10:54:19;99939.27;;;3.20;69.44
34235;BME280;20500;49.856;20.290;2023-03-01T10:57:33;99934.14;;;3.31;69.35
34235;BME280;20500;49.856;20.290;2023-03-01T11:00:53;99930.33;;;3.41;69.49
34235;BME280;20500;49.856;20.290;2023-03-01T11:04:13;99928.35;;;3.48;69.25
34235;BME280;20500;49.856;20.290;2023-03-01T11:07:19;99927.69;;;3.59;68.92
34235;BME280;20500;49.856;20.290;2023-03-01T11:10:27;99925.30;;;3.72;68.47
34235;BME280;20500;49.856;20.290;2023-03-01T11:13:34;99925.02;;;3.84;68.65
34235;BME280;20500;49.856;20.290;2023-03-01T11:16:45;99923.69;;;3.97;68.82
34235;BME280;20500;49.856;20.290;2023-03-01T11:20:05;99920.94;;;4.05;68.74
34235;BME280;20500;49.856;20.290;2023-03-01T11:23:14;99918.27;;;4.09;68.68
34235;BME280;20500;49.856;20.290;2023-03-01T11:26:21;99917.89;;;4.21;68.59
34235;BME280;20500;49.856;20.290;2023-03-01T11:29:32;99914.44;;;4.26;68.62
34235;BME280;20500;49.856;20.290;2023-03-01T11:33:01;99911.44;;;4.29;68.03
34235;BME280;20500;49.856;20.290;2023-03-01T11:36:16;99907.39;;;4.42;67.95
34235;BME280;20500;49.856;20.290;2023-03-01T11:39:30;99902.41;;;4.59;67.75
34235;BME280;20500;49.856;20.290;2023-03-01T11:42:46;99899.21;;;4.74;67.55
34235;BME280;20500;49.856;20.290;2023-03-01T11:46:08;99895.48;;;4.84;67.21
34235;BME280;20500;49.856;20.290;2023-03-01T11:49:44;99892.48;;;4.82;67.43
34235;BME280;20500;49.856;20.290;2023-03-01T11:53:04;99886.86;;;4.80;67.24
34235;BME280;20500;49.856;20.290;2023-03-01T11:56:23;99885.01;;;4.81;67.01
34235;BME280;20500;49.856;20.290;2023-03-01T11:59:49;99885.02;;;4.85;66.88
34235;BME280;20500;49.856;20.290;2023-03-01T12:03:28;99878.41;;;4.91;66.47
34235;BME280;20500;49.856;20.290;2023-03-01T12:06:50;99868.68;;;5.04;66.35
34235;BME280;20500;49.856;20.290;2023-03-01T12:10:19;99870.21;;;5.27;66.03
34235;BME280;20500;49.856;20.290;2023-03-01T12:13:44;99865.40;;;5.48;65.93
34235;BME280;20500;49.856;20.290;2023-03-01T12:17:20;99852.73;;;5.70;65.62
34235;BME280;20500;49.856;20.290;2023-03-01T12:20:34;99847.14;;;5.84;65.51
34235;BME280;20500;49.856;20.290;2023-03-01T12:27:49;99847.05;;;5.98;64.97
34235;BME280;20500;49.856;20.290;2023-03-01T12:31:37;99839.88;;;6.00;64.67
34235;BME280;20500;49.856;20.290;2023-03-01T12:35:09;99839.41;;;5.95;64.10
34235;BME280;20500;49.856;20.290;2023-03-01T12:38:30;99836.86;;;6.01;64.32
34235;BME280;20500;49.856;20.290;2023-03-01T12:41:55;99833.58;;;6.16;64.81
34235;BME280;20500;49.856;20.290;2023-03-01T12:45:34;99835.33;;;6.09;64.28
34235;BME280;20500;49.856;20.290;2023-03-01T12:48:50;99837.95;;;5.95;63.50
34235;BME280;20500;49.856;20.290;2023-03-01T12:52:08;99835.15;;;5.92;63.37
34235;BME280;20500;49.856;20.290;2023-03-01T12:55:26;99829.79;;;5.92;63.28
34235;BME280;20500;49.856;20.290;2023-03-01T12:58:38;99828.95;;;6.03;63.10
34235;BME280;20500;49.856;20.290;2023-03-01T13:02:00;99826.66;;;6.11;62.41
34235;BME280;20500;49.856;20.290;2023-03-01T13:05:25;99819.05;;;6.07;62.28
34235;BME280;20500;49.856;20.290;2023-03-01T13:08:38;99812.98;;;6.12;62.58
34235;BME280;20500;49.856;20.290;2023-03-01T13:11:46;99814.15;;;6.14;62.28
34235;BME280;20500;49.856;20.290;2023-03-01T13:14:51;99814.88;;;6.14;62.01
34235;BME280;20500;49.856;20.290;2023-03-01T13:18:01;99812.02;;;6.17;62.08
34235;BME280;20500;49.856;20.290;2023-03-01T13:21:08;99811.81;;;6.16;61.41
34235;BME280;20500;49.856;20.290;2023-03-01T13:24:28;99807.34;;;6.29;61.78
34235;BME280;20500;49.856;20.290;2023-03-01T13:27:35;99803.89;;;6.36;61.30
34235;BME280;20500;49.856;20.290;2023-03-01T13:30:42;99802.63;;;6.42;61.03
34235;BME280;20500;49.856;20.290;2023-03-01T13:33:49;99802.80;;;6.48;60.85
34235;BME280;20500;49.856;20.290;2023-03-01T13:37:10;99803.52;;;6.52;61.01
34235;BME280;20500;49.856;20.290;2023-03-01T13:43:56;99796.39;;;6.37;60.76
34235;BME280;20500;49.856;20.290;2023-03-01T13:47:13;99795.05;;;6.24;60.81
34235;BME280;20500;49.856;20.290;2023-03-01T13:50:24;99792.09;;;6.15;60.53
34235;BME280;20500;49.856;20.290;2023-03-01T13:53:35;99789.65;;;6.05;59.93
34235;BME280;20500;49.856;20.290;2023-03-01T13:56:43;99788.00;;;6.04;59.51
34235;BME280;20500;49.856;20.290;2023-03-01T13:59:49;99787.02;;;6.08;59.49
34235;BME280;20500;49.856;20.290;2023-03-01T14:03:00;99783.65;;;6.10;59.06
34235;BME280;20500;49.856;20.290;2023-03-01T14:06:14;99777.60;;;6.09;58.98
34235;BME280;20500;49.856;20.290;2023-03-01T14:09:34;99771.33;;;6.13;58.47
34235;BME280;20500;49.856;20.290;2023-03-01T14:12:47;99768.52;;;6.16;58.13
34235;BME280;20500;49.856;20.290;2023-03-01T14:16:12;99762.57;;;6.14;57.84
34235;BME280;20500;49.856;20.290;2023-03-01T14:19:26;99762.85;;;6.19;57.62
34235;BME280;20500;49.856;20.290;2023-03-01T14:22:38;99762.70;;;6.21;57.46
34235;BME280;20500;49.856;20.290;2023-03-01T14:25:50;99762.61;;;6.18;57.44
34235;BME280;20500;49.856;20.290;2023-03-01T14:28:57;99764.08;;;6.17;57.57
34235;BME280;20500;49.856;20.290;2023-03-01T14:32:18;99763.52;;;6.14;57.61
34235;BME280;20500;49.856;20.290;2023-03-01T14:35:27;99759.00;;;6.08;56.99
34235;BME280;20500;49.856;20.290;2023-03-01T14:38:35;99754.08;;;6.02;56.96
34235;BME280;20500;49.856;20.290;2023-03-01T14:41:42;99749.10;;;5.95;56.99
34235;BME280;20500;49.856;20.290;2023-03-01T14:44:46;99751.15;;;5.90;56.53
34235;BME280;20500;49.856;20.290;2023-03-01T14:47:54;99753.77;;;5.85;56.55
34235;BME280;20500;49.856;20.290;2023-03-01T14:51:01;99755.64;;;5.82;56.72
34235;BME280;20500;49.856;20.290;2023-03-01T14:54:22;99756.90;;;5.78;56.60
34235;BME280;20500;49.856;20.290;2023-03-01T14:57:30;99759.74;;;5.72;56.45
34235;BME280;20500;49.856;20.290;2023-03-01T15:00:36;99749.41;;;5.65;56.51
34235;BME280;20500;49.856;20.290;2023-03-01T15:03:44;99751.52;;;5.59;56.08
34235;BME280;20500;49.856;20.290;2023-03-01T15:06:53;99751.05;;;5.54;56.28
34235;BME280;20500;49.856;20.290;2023-03-01T15:10:00;99753.35;;;5.47;55.93
34235;BME280;20500;49.856;20.290;2023-03-01T15:13:20;99758.71;;;5.41;55.77
34235;BME280;20500;49.856;20.290;2023-03-01T15:16:29;99760.09;;;5.35;55.60
34235;BME280;20500;49.856;20.290;2023-03-01T15:19:36;99756.73;;;5.30;55.65
34235;BME280;20500;49.856;20.290;2023-03-01T15:22:42;99751.19;;;5.26;55.49
34235;BME280;20500;49.856;20.290;2023-03-01T15:25:53;99749.41;;;5.19;55.27
34235;BME280;20500;49.856;20.290;2023-03-01T15:29:02;99748.73;;;5.12;55.36
34235;BME280;20500;49.856;20.290;2023-03-01T15:32:26;99748.31;;;5.05;55.04
34235;BME280;20500;49.856;20.290;2023-03-01T15:35:42;99752.77;;;4.97;55.00
34235;BME280;20500;49.856;20.290;2023-03-01T15:38:54;99754.88;;;4.89;55.19
34235;BME280;20500;49.856;20.290;2023-03-01T15:42:01;99756.83;;;4.80;54.89
34235;BME280;20500;49.856;20.290;2023-03-01T15:45:20;99754.10;;;4.72;54.83
34235;BME280;20500;49.856;20.290;2023-03-01T15:48:26;99755.36;;;4.64;54.42
34235;BME280;20500;49.856;20.290;2023-03-01T15:51:35;99749.21;;;4.55;54.44
34235;BME280;20500;49.856;20.290;2023-03-01T15:54:42;99745.77;;;4.47;54.47
34235;BME280;20500;49.856;20.290;2023-03-01T15:57:49;99749.52;;;4.39;54.45
34235;BME280;20500;49.856;20.290;2023-03-01T16:00:55;99753.23;;;4.28;54.52
34235;BME280;20500;49.856;20.290;2023-03-01T16:04:06;99756.38;;;4.16;54.51
34235;BME280;20500;49.856;20.290;2023-03-01T16:07:10;99757.55;;;4.06;54.37
34235;BME280;20500;49.856;20.290;2023-03-01T16:10:17;99756.01;;;3.97;54.34
34235;BME280;20500;49.856;20.290;2023-03-01T16:13:24;99759.30;;;3.84;54.29
34235;BME280;20500;49.856;20.290;2023-03-01T16:16:33;99757.69;;;3.73;54.28
34235;BME280;20500;49.856;20.290;2023-03-01T16:19:40;99758.89;;;3.58;54.09
34235;BME280;20500;49.856;20.290;2023-03-01T16:22:47;99763.06;;;3.44;54.15
34235;BME280;20500;49.856;20.290;2023-03-01T16:25:53;99767.58;;;3.29;54.16
34235;BME280;20500;49.856;20.290;2023-03-01T16:28:58;99767.80;;;3.19;54.17
34235;BME280;20500;49.856;20.290;2023-03-01T16:32:05;99772.46;;;3.13;54.30
34235;BME280;20500;49.856;20.290;2023-03-01T16:35:15;99779.19;;;3.05;54.33
34235;BME280;20500;49.856;20.290;2023-03-01T16:38:22;99777.91;;;2.93;54.36